Terminal Aerodrome Forecast
Issued by NWS

Home | Current Version | Previous Version | Text Only | Print | Product List | Glossary On
Versions: 1 2 3 4 5 6 7 8 9 10 11 12 13 14 15 16 17
000
FTAK31 PAJN 012000 AAA
TAFAYA
TAF AMD
PAYA 012052Z 0121/0218 27010KT P6SM SCT020
      TEMPO 0122/0202 FEW002 BKN020
     FM020900 00000KT 6SM BR FEW002
     FM021700 27006KT P6SM BKN200
      AMD LTD TO CLD VIS AND WIND 0201/0210=

USA.gov is the U.S. government's official web portal to all federal, state and local government web resources and services.